createdAt,value
2023-03-19T00:14:43.602Z,9.54
2023-03-19T00:29:46.720Z,9.09
2023-03-19T00:44:49.806Z,8.63
2023-03-19T00:59:52.959Z,8.29
2023-03-19T01:14:56.044Z,8.01
2023-03-19T01:30:04.181Z,7.79
2023-03-19T01:45:38.012Z,7.70
2023-03-19T02:01:07.323Z,7.49
2023-03-19T02:16:12.626Z,7.39
2023-03-19T02:31:18.579Z,7.41
2023-03-19T02:46:22.116Z,7.53
2023-03-19T03:01:26.045Z,7.29
2023-03-19T03:16:29.370Z,7.15
2023-03-19T03:31:32.953Z,7.19
2023-03-19T03:46:36.185Z,7.33
2023-03-19T04:01:39.737Z,7.50
2023-03-19T04:16:44.356Z,7.61
2023-03-19T04:31:48.213Z,7.82
2023-03-19T04:46:51.493Z,7.88
2023-03-19T05:01:55.823Z,7.95
2023-03-19T05:17:00.752Z,8.05
2023-03-19T05:32:10.706Z,8.28
2023-03-19T05:47:15.010Z,8.45
2023-03-19T06:02:22.896Z,8.58
2023-03-19T06:17:28.090Z,8.85
2023-03-19T06:32:35.155Z,9.31
2023-03-19T06:47:43.730Z,9.79
2023-03-19T07:02:46.878Z,9.97
2023-03-19T07:17:50.522Z,10.31
2023-03-19T07:32:55.047Z,11.20
2023-03-19T07:47:58.482Z,11.90
2023-03-19T08:03:02.103Z,12.75
2023-03-19T08:18:05.687Z,13.45
2023-03-19T08:33:09.039Z,14.18
2023-03-19T08:48:12.237Z,14.91
2023-03-19T09:03:17.256Z,15.95
2023-03-19T09:18:21.436Z,16.28
2023-03-19T09:33:24.686Z,16.84
2023-03-19T09:48:38.942Z,17.65
2023-03-19T10:04:19.602Z,18.47
2023-03-19T10:19:31.944Z,19.32
2023-03-19T10:34:46.025Z,20.20
2023-03-19T10:49:50.768Z,21.23
2023-03-19T11:05:13.239Z,21.89
2023-03-19T11:20:37.550Z,22.16
2023-03-19T11:35:48.983Z,21.93
2023-03-19T11:51:11.399Z,22.67
2023-03-19T12:06:33.459Z,22.62
2023-03-19T12:21:55.138Z,23.23
2023-03-19T12:37:01.347Z,24.07
2023-03-19T12:52:18.787Z,24.24
2023-03-19T13:07:41.041Z,24.11
2023-03-19T13:22:52.109Z,24.23
2023-03-19T13:38:07.321Z,24.53
2023-03-19T13:53:32.589Z,23.73
2023-03-19T14:08:47.669Z,22.86
2023-03-19T14:23:57.746Z,21.97
2023-03-19T14:39:08.060Z,21.25
2023-03-19T14:54:17.858Z,20.74
2023-03-19T15:09:32.409Z,20.37
2023-03-19T15:24:40.643Z,20.18
2023-03-19T15:39:52.156Z,20.14
2023-03-19T15:54:57.578Z,19.74
2023-03-19T16:10:00.882Z,19.46
2023-03-19T16:25:07.911Z,18.98
2023-03-19T16:40:14.421Z,18.48
2023-03-19T16:55:25.836Z,18.01
2023-03-19T17:10:30.834Z,17.50
2023-03-19T17:25:34.418Z,17.22
2023-03-19T17:40:38.547Z,16.91
2023-03-19T17:55:42.109Z,16.64
2023-03-19T18:10:46.101Z,16.37
2023-03-19T18:25:52.683Z,16.11
2023-03-19T18:40:56.431Z,15.83
2023-03-19T18:56:01.084Z,15.83
2023-03-19T19:11:06.850Z,15.78
2023-03-19T19:26:22.544Z,15.65
2023-03-19T19:41:27.181Z,15.58
2023-03-19T19:56:30.826Z,15.34
2023-03-19T20:11:34.354Z,15.33
2023-03-19T20:26:38.438Z,14.95
2023-03-19T20:41:42.635Z,14.41
2023-03-19T20:56:48.127Z,14.21
2023-03-19T21:11:52.507Z,13.88
2023-03-19T21:26:57.037Z,13.74
2023-03-19T21:42:02.451Z,13.50
2023-03-19T21:57:05.635Z,13.31
2023-03-19T22:12:24.425Z,13.09
2023-03-19T22:27:27.625Z,12.76
2023-03-19T22:42:31.230Z,12.60
2023-03-19T22:57:34.499Z,12.38
2023-03-19T23:12:38.009Z,12.14
2023-03-19T23:27:42.335Z,11.84
2023-03-19T23:42:49.976Z,11.60
2023-03-19T23:57:53.631Z,11.29
